Time;durP1;ratioP1;P1;durP2;ratioP2;P2;SDS_P1;SDS_P2;PMS_P1;PMS_P2;Temp;Humidity;BMP_temperature;BMP_pressure;BME280_temperature;BME280_humidity;BME280_pressure;Samples;Min_cycle;Max_cycle;Signal;HPM_P1;HPM_P2
2023/03/08 00:00:44;;;;;;;8.93;5.55;;;3.00;99.90;;;2.38;69.38;95895.63;4980354;28;20037;-50
2023/03/08 00:03:13;;;;;;;8.60;5.20;;;3.10;99.90;;;2.47;67.33;95897.09;4981508;28;20773;-50
2023/03/08 00:05:39;;;;;;;10.43;5.47;;;3.30;99.90;;;2.49;67.95;95903.13;4983023;28;20088;-51
2023/03/08 00:08:05;;;;;;;13.27;5.32;;;3.30;99.90;;;2.54;68.19;95895.19;4981807;28;20041;-52
2023/03/08 00:10:30;;;;;;;10.35;5.32;;;3.40;99.90;;;2.56;68.85;95891.63;4979594;28;20037;-51
2023/03/08 00:12:56;;;;;;;12.15;6.18;;;3.40;99.90;;;2.60;67.63;95897.59;4981210;28;20045;-53
2023/03/08 00:15:22;;;;;;;10.30;5.47;;;3.40;99.90;;;2.64;67.54;95897.47;4986496;28;20545;-52
2023/03/08 00:17:47;;;;;;;8.18;5.13;;;3.50;99.90;;;2.68;67.85;95900.84;4990835;28;20037;-53
2023/03/08 00:20:13;;;;;;;9.00;4.88;;;3.50;99.90;;;2.71;67.51;95902.47;4985133;28;20042;-52
2023/03/08 00:22:41;;;;;;;11.38;4.82;;;3.50;99.90;;;2.72;67.38;95899.84;4981954;28;20080;-50
2023/03/08 00:25:09;;;;;;;11.63;5.88;;;3.50;99.90;;;2.72;67.45;95897.22;4982230;28;20048;-49
2023/03/08 00:27:36;;;;;;;9.95;5.90;;;3.50;99.90;;;2.79;66.27;95903.97;4987471;28;20026;-49
2023/03/08 00:30:05;;;;;;;11.88;5.85;;;3.50;99.90;;;2.79;66.05;95903.13;4987498;28;20034;-49
2023/03/08 00:32:31;;;;;;;8.20;5.40;;;3.60;99.90;;;2.74;66.47;95897.19;4981504;28;20092;-49
2023/03/08 00:34:57;;;;;;;11.70;6.30;;;3.50;99.90;;;2.77;66.60;95903.16;4983201;28;20034;-49
2023/03/08 00:37:23;;;;;;;12.52;6.53;;;3.60;99.90;;;2.74;66.87;95913.66;4983710;28;20030;-49
2023/03/08 00:39:53;;;;;;;10.57;6.00;;;3.60;99.90;;;2.71;67.32;95916.38;4997254;28;20042;-52
2023/03/08 00:42:20;;;;;;;11.75;6.50;;;3.50;99.90;;;2.66;67.33;95905.25;4983439;28;20489;-48
2023/03/08 00:44:46;;;;;;;13.85;6.13;;;3.50;99.90;;;2.74;66.96;95915.41;4980491;28;20124;-48
2023/03/08 00:47:11;;;;;;;14.07;6.90;;;3.50;99.90;;;2.68;67.43;95901.69;4982388;28;20633;-52
2023/03/08 00:49:37;;;;;;;10.65;6.13;;;3.50;99.90;;;2.69;67.22;95910.34;4981314;28;20030;-51
2023/03/08 00:52:03;;;;;;;11.23;6.38;;;3.50;99.90;;;2.71;67.91;95908.56;4983551;28;20489;-53
2023/03/08 00:54:29;;;;;;;11.52;6.28;;;3.60;99.90;;;2.73;67.46;95895.47;4981408;28;20033;-52
2023/03/08 00:56:55;;;;;;;12.18;6.13;;;3.60;99.90;;;2.80;67.67;95878.78;4983163;28;20104;-50
2023/03/08 00:59:21;;;;;;;11.52;6.35;;;3.60;99.90;;;2.73;67.97;95869.44;4986866;28;20046;-52
2023/03/08 01:01:47;;;;;;;12.60;6.68;;;3.60;99.90;;;2.82;67.86;95874.41;4984758;28;20496;-52
2023/03/08 01:04:12;;;;;;;12.05;6.60;;;3.60;99.90;;;2.73;68.13;95859.91;4982409;28;20414;-48
2023/03/08 01:06:39;;;;;;;12.98;6.50;;;3.60;99.90;;;2.68;68.27;95860.03;4987148;28;20699;-51
2023/03/08 01:09:05;;;;;;;10.52;6.68;;;3.50;99.90;;;2.54;69.18;95863.97;4981536;28;20048;-50
2023/03/08 01:11:34;;;;;;;13.05;6.20;;;3.40;99.90;;;2.27;70.11;95843.06;4988231;28;20064;-50
2023/03/08 01:14:00;;;;;;;11.05;6.70;;;3.20;99.90;;;2.23;71.42;95862.25;4986590;28;20048;-49
2023/03/08 01:16:29;;;;;;;12.57;6.45;;;3.00;99.90;;;2.09;72.55;95852.25;4985731;28;20033;-49
2023/03/08 01:18:56;;;;;;;10.55;6.22;;;3.00;99.90;;;1.97;74.27;95861.22;4982699;28;20068;-52
2023/03/08 01:21:23;;;;;;;13.55;6.90;;;2.80;99.90;;;1.87;74.68;95854.59;4981373;28;20121;-47
2023/03/08 01:23:49;;;;;;;13.90;6.97;;;2.70;99.90;;;1.77;75.74;95840.13;4978919;28;20041;-48
2023/03/08 01:26:19;;;;;;;11.48;6.90;;;2.60;99.90;;;1.75;76.67;95844.53;4981962;28;20030;-52
2023/03/08 01:28:45;;;;;;;13.75;6.97;;;2.50;99.90;;;1.69;77.62;95833.41;4986406;28;20029;-51
2023/03/08 01:31:26;;;;;;;14.55;6.95;;;2.50;99.90;;;1.60;78.59;95823.25;4986723;28;20505;-49
2023/03/08 01:33:52;;;;;;;18.50;7.63;;;2.40;99.90;;;1.49;79.96;95820.94;4986461;28;20085;-48
2023/03/08 01:36:22;;;;;;;13.20;7.75;;;2.40;99.90;;;1.47;81.24;95821.84;4980112;28;20026;-50
2023/03/08 01:38:48;;;;;;;14.23;6.78;;;2.30;99.90;;;1.37;81.99;95815.22;5018091;22;20049;-39
2023/03/08 01:41:29;;;;;;;13.27;7.75;;;2.20;99.90;;;1.40;82.69;95812.53;4998492;28;20040;-39
2023/03/08 01:43:55;;;;;;;16.20;7.83;;;2.20;99.90;;;1.31;83.49;95791.13;4998215;28;20099;-40
2023/03/08 01:46:30;;;;;;;16.75;8.27;;;2.20;99.90;;;1.44;83.34;95801.19;5004367;28;20415;-40
2023/03/08 01:49:02;;;;;;;13.60;7.57;;;2.20;99.90;;;1.45;83.55;95789.88;4984242;28;20033;-40
2023/03/08 01:51:33;;;;;;;;;;;2.20;99.90;;;1.23;83.41;95761.88;4975031;28;20066;-40
2023/03/08 01:54:06;;;;;;;11.93;6.93;;;2.20;99.90;;;1.43;82.68;95789.06;4980460;28;20403;-40
2023/03/08 01:56:33;;;;;;;16.38;7.28;;;2.20;99.90;;;1.44;83.31;95793.38;4984642;28;20034;-39
2023/03/08 01:59:00;;;;;;;15.00;8.10;;;2.20;99.90;;;1.40;84.03;95782.22;4978856;28;20030;-40
2023/03/08 02:01:26;;;;;;;15.23;7.80;;;2.20;99.90;;;1.31;85.29;95785.03;4982407;28;20084;-40
2023/03/08 02:03:52;;;;;;;14.70;7.68;;;2.10;99.90;;;1.27;85.48;95780.84;4994422;28;20026;-40
2023/03/08 02:06:19;;;;;;;13.43;7.47;;;2.10;99.90;;;1.13;87.20;95781.19;4981699;28;20042;-40
2023/03/08 02:08:45;;;;;;;13.48;7.18;;;2.10;99.90;;;1.13;86.70;95786.38;4974925;28;20069;-40
2023/03/08 02:11:13;;;;;;;11.90;7.32;;;2.00;99.90;;;1.11;86.74;95788.16;4978635;28;20040;-40
2023/03/08 02:13:39;;;;;;;13.55;7.43;;;2.00;99.90;;;1.21;86.88;95794.84;4981984;28;20022;-40
2023/03/08 02:16:09;;;;;;;14.05;7.72;;;2.00;99.90;;;1.27;86.14;95797.25;4969472;28;20410;-40
2023/03/08 02:18:34;;;;;;;16.25;7.35;;;2.10;99.90;;;1.25;85.33;95778.28;4974323;28;20034;-40
2023/03/08 02:21:00;;;;;;;14.30;7.28;;;2.20;99.90;;;1.35;84.00;95771.09;4980788;28;20136;-40
2023/03/08 02:23:26;;;;;;;13.60;6.85;;;2.30;99.90;;;1.50;83.50;95781.06;4981804;28;20034;-40
2023/03/08 02:26:04;;;;;;;15.20;7.57;;;2.30;99.90;;;1.59;84.52;95779.97;4982250;28;20444;-41
2023/03/08 02:28:31;;;;;;;13.65;7.40;;;2.40;99.90;;;1.59;83.47;95768.72;4980561;28;20030;-40
2023/03/08 02:30:58;;;;;;;11.57;6.63;;;2.40;99.90;;;1.52;84.30;95748.09;4978117;28;21459;-41
2023/03/08 02:33:24;;;;;;;17.63;7.55;;;2.50;99.90;;;1.62;83.54;95761.69;4983477;28;20560;-40
2023/03/08 02:35:50;;;;;;;13.57;7.15;;;2.50;99.90;;;1.68;83.52;95760.66;4984485;28;20510;-40
2023/03/08 02:38:19;;;;;;;13.35;6.82;;;2.50;99.90;;;1.64;83.70;95757.31;4986359;28;20759;-41
2023/03/08 02:40:45;;;;;;;11.30;6.63;;;2.50;99.90;;;1.71;82.81;95758.84;4981641;28;21366;-41
2023/03/08 02:43:11;;;;;;;13.18;6.90;;;2.50;99.90;;;1.69;82.72;95752.84;4982660;28;20042;-41
2023/03/08 02:45:37;;;;;;;13.00;6.82;;;2.60;99.90;;;1.73;82.53;95753.59;4970634;28;20108;-41
2023/03/08 02:48:04;;;;;;;14.60;6.97;;;2.60;99.90;;;1.75;82.25;95741.41;4983643;28;20045;-41
2023/03/08 02:50:31;;;;;;;12.88;6.80;;;2.60;99.90;;;1.73;81.82;95740.59;4986600;28;20398;-40
2023/03/08 02:52:57;;;;;;;14.50;7.50;;;2.50;99.90;;;1.75;82.64;95743.16;4983297;28;20069;-40
2023/03/08 02:55:23;;;;;;;13.07;6.68;;;2.60;99.90;;;1.69;83.08;95736.41;4986858;28;20038;-40
2023/03/08 02:57:48;;;;;;;12.45;6.38;;;2.60;99.90;;;1.75;82.37;95750.97;4982590;28;20048;-41
2023/03/08 03:00:15;;;;;;;14.10;6.97;;;2.60;99.90;;;1.79;81.96;95734.38;4987923;28;20092;-41
2023/03/08 03:02:40;;;;;;;11.93;6.85;;;2.60;99.90;;;1.81;81.37;95733.47;4983181;28;21511;-41
2023/03/08 03:05:11;;;;;;;13.75;7.00;;;2.70;99.90;;;1.84;80.47;95719.50;4984037;28;20045;-41
2023/03/08 03:07:40;;;;;;;13.98;7.35;;;2.70;99.90;;;1.90;80.22;95721.91;4981608;28;20375;-41
2023/03/08 03:10:10;;;;;;;17.17;7.20;;;2.70;99.90;;;1.91;80.45;95719.28;4986575;28;20034;-41
2023/03/08 03:12:35;;;;;;;14.63;7.05;;;2.70;99.90;;;1.90;81.02;95709.78;4984921;28;20034;-40
2023/03/08 03:15:04;;;;;;;15.93;6.63;;;2.80;99.90;;;1.91;81.54;95703.66;4983553;28;20033;-40
2023/03/08 03:17:30;;;;;;;15.77;7.05;;;2.70;99.90;;;1.91;80.78;95697.63;4987141;28;20544;-40
2023/03/08 03:19:56;;;;;;;11.50;6.20;;;2.80;99.90;;;1.93;80.62;95685.44;4986290;28;20112;-40
2023/03/08 03:22:22;;;;;;;12.00;6.30;;;2.80;99.90;;;1.96;80.35;95679.31;4988649;28;20514;-40
2023/03/08 03:24:51;;;;;;;14.68;7.38;;;2.80;99.90;;;1.98;79.88;95680.94;4984061;28;20103;-40
2023/03/08 03:27:18;;;;;;;11.07;6.15;;;2.80;99.90;;;1.99;79.80;95681.78;4985610;28;20442;-46
2023/03/08 03:29:44;;;;;;;11.30;6.35;;;2.80;99.90;;;1.99;79.96;95666.19;4983466;28;20343;-40
2023/03/08 03:32:10;;;;;;;11.60;6.13;;;2.80;99.90;;;1.96;81.27;95671.50;4985871;28;20040;-40
2023/03/08 03:34:35;;;;;;;12.88;6.35;;;2.80;99.90;;;1.93;83.03;95669.84;4983656;28;20034;-40
2023/03/08 03:37:01;;;;;;;9.43;5.55;;;2.80;99.90;;;1.93;82.35;95666.38;4976431;28;20386;-40
2023/03/08 03:39:32;;;;;;;14.55;6.63;;;2.80;99.90;;;1.89;82.54;95668.22;4976558;28;20034;-40
2023/03/08 03:41:58;;;;;;;11.65;6.57;;;2.70;99.90;;;1.87;82.46;95665.69;4983003;28;20042;-40
2023/03/08 03:44:24;;;;;;;15.13;6.20;;;2.70;99.90;;;1.85;81.53;95664.88;4984998;28;20036;-40
2023/03/08 03:46:50;;;;;;;11.45;6.10;;;2.70;99.90;;;1.76;81.36;95648.69;4982137;28;20037;-40
2023/03/08 03:49:16;;;;;;;13.18;6.53;;;2.60;99.90;;;1.61;82.71;95640.47;4981820;28;21494;-40
2023/03/08 03:51:41;;;;;;;10.70;6.30;;;2.50;99.90;;;1.62;83.74;95649.97;4977092;28;20038;-40
2023/03/08 03:54:07;;;;;;;11.00;6.13;;;2.50;99.90;;;1.58;83.87;95653.56;4989926;28;20139;-40
2023/03/08 03:56:32;;;;;;;11.70;5.68;;;2.40;99.90;;;1.55;84.51;95656.25;4980528;28;20053;-41
2023/03/08 03:58:58;;;;;;;11.82;6.45;;;2.40;99.90;;;1.53;84.73;95655.44;4980982;28;20037;-40
2023/03/08 04:01:30;;;;;;;9.85;5.55;;;2.30;99.90;;;1.51;84.96;95658.09;4981065;28;20033;-40
2023/03/08 04:03:57;;;;;;;12.53;6.40;;;2.40;99.90;;;1.48;85.89;95654.72;4982823;28;20072;-40
2023/03/08 04:06:31;;;;;;;13.77;6.38;;;2.30;99.90;;;1.47;86.58;95655.59;4989516;28;20030;-40
2023/03/08 04:09:00;;;;;;;14.10;7.18;;;2.30;99.90;;;1.44;85.98;95645.31;4987340;28;20041;-40
2023/03/08 04:11:32;;;;;;;14.35;7.03;;;2.40;99.90;;;1.53;86.21;95647.66;4982508;28;20030;-40
2023/03/08 04:13:58;;;;;;;12.32;6.47;;;2.40;99.90;;;1.59;85.47;95644.00;4986337;28;20034;-40
2023/03/08 04:16:27;;;;;;;11.85;6.18;;;2.40;99.90;;;1.61;85.08;95639.63;4979215;28;20053;-40
2023/03/08 04:18:56;;;;;;;11.98;6.45;;;2.50;99.90;;;1.67;84.94;95632.50;4982390;28;20148;-40
2023/03/08 04:21:22;;;;;;;11.27;6.43;;;2.50;99.90;;;1.68;84.78;95623.78;4988517;28;20057;-40
2023/03/08 04:23:48;;;;;;;13.20;6.60;;;2.50;99.90;;;1.69;84.30;95617.72;4988866;28;20481;-40
2023/03/08 04:26:14;;;;;;;10.38;6.15;;;2.60;99.90;;;1.77;84.13;95617.47;4986842;28;20038;-40
2023/03/08 04:28:41;;;;;;;12.85;6.82;;;2.60;99.90;;;1.81;83.04;95621.69;4982597;28;20111;-40
2023/03/08 04:31:27;;;;;;;12.35;6.85;;;2.60;99.90;;;1.83;82.71;95625.09;4988594;28;20065;-40
2023/03/08 04:33:54;;;;;;;10.80;6.50;;;2.60;99.90;;;1.85;84.24;95625.88;4986392;28;20041;-40
2023/03/08 04:36:20;;;;;;;11.80;6.35;;;2.70;99.90;;;1.88;83.85;95632.72;4989014;28;20256;-40
2023/03/08 04:38:48;;;;;;;12.80;6.40;;;2.70;99.90;;;1.92;83.26;95626.56;4978159;28;20124;-39
2023/03/08 04:41:14;;;;;;;12.75;6.80;;;2.70;99.90;;;1.96;83.08;95622.09;4973440;28;20045;-39
2023/03/08 04:44:07;;;;;;;13.80;6.90;;;2.80;99.90;;;1.97;82.61;95590.84;4986265;28;20533;-40
2023/03/08 04:46:32;;;;;;;14.68;7.15;;;2.80;99.90;;;1.99;81.61;95588.19;4984225;28;20054;-39
2023/03/08 04:48:58;;;;;;;12.88;6.38;;;2.80;99.90;;;2.04;81.17;95597.53;4979199;28;20033;-39
2023/03/08 04:51:25;;;;;;;12.40;6.95;;;2.80;99.90;;;2.07;80.90;95599.22;4981425;28;20037;-40
2023/03/08 04:53:51;;;;;;;14.55;6.80;;;2.90;99.90;;;2.07;81.76;95584.44;4981727;28;20026;-40
2023/03/08 04:56:18;;;;;;;11.50;6.40;;;2.90;99.90;;;2.10;80.31;95584.34;4989507;28;20037;-40
2023/03/08 04:58:43;;;;;;;10.73;6.00;;;2.90;99.90;;;2.13;79.95;95577.34;4983404;28;20049;-39
2023/03/08 05:01:16;;;;;;;11.27;6.63;;;2.90;99.90;;;2.15;80.84;95570.34;4978379;28;23147;-40
2023/03/08 05:03:41;;;;;;;12.13;7.28;;;3.00;99.90;;;2.13;79.16;95546.16;4979894;28;20612;-39
2023/03/08 05:06:08;;;;;;;13.10;6.65;;;3.00;99.90;;;2.21;79.88;95564.97;4977873;28;20309;-39
2023/03/08 05:08:34;;;;;;;15.10;6.82;;;3.00;99.90;;;2.22;79.03;95556.25;4983952;28;20022;-39
2023/03/08 05:11:01;;;;;;;16.70;7.45;;;3.00;99.90;;;2.23;79.34;95557.94;4976844;28;20037;-39
2023/03/08 05:13:30;;;;;;;12.77;6.88;;;3.00;99.90;;;2.24;79.24;95549.22;4976469;28;20120;-40
2023/03/08 05:15:56;;;;;;;12.82;7.38;;;3.10;99.90;;;2.28;78.55;95553.44;4979419;28;20038;-41
2023/03/08 05:18:22;;;;;;;11.98;7.03;;;3.10;99.90;;;2.34;78.17;95547.19;4985072;28;20051;-41
2023/03/08 05:21:00;;;;;;;17.02;8.10;;;3.10;99.90;;;2.32;78.81;95555.03;4982430;28;20393;-40
2023/03/08 05:23:27;;;;;;;14.93;7.45;;;3.10;99.90;;;2.46;77.14;95559.78;4977021;28;20389;-40
2023/03/08 05:25:55;;;;;;;12.57;6.43;;;3.20;99.90;;;2.39;78.19;95545.28;4982969;28;20028;-40
2023/03/08 05:28:22;;;;;;;16.50;7.82;;;3.20;99.90;;;2.37;78.45;95545.31;4981804;28;20022;-41
2023/03/08 05:30:48;;;;;;;13.75;7.22;;;3.20;99.90;;;2.38;78.68;95535.75;4978249;28;20045;-40
2023/03/08 05:33:17;;;;;;;11.95;6.90;;;3.20;99.90;;;2.40;78.50;95546.97;4981636;28;20030;-40
2023/03/08 05:35:43;;;;;;;13.10;7.00;;;3.20;99.90;;;2.21;79.07;95498.19;4980261;28;20096;-40
2023/03/08 05:38:08;;;;;;;14.88;7.97;;;3.20;99.90;;;2.40;78.67;95532.19;4980058;28;20132;-40
2023/03/08 05:40:34;;;;;;;12.30;7.20;;;3.20;99.90;;;2.42;78.68;95521.75;4974215;28;21335;-40
2023/03/08 05:43:00;;;;;;;12.45;7.40;;;3.20;99.90;;;2.47;78.08;95525.03;4997767;28;20041;-40
2023/03/08 05:45:25;;;;;;;15.38;8.20;;;3.30;99.90;;;2.52;78.23;95519.69;4982661;28;20041;-40
2023/03/08 05:47:51;;;;;;;14.55;7.63;;;3.30;99.90;;;2.55;77.77;95511.75;4982182;28;20466;-40
2023/03/08 05:50:17;;;;;;;15.10;7.60;;;3.30;99.90;;;2.57;77.35;95510.81;4976373;28;20029;-40
2023/03/08 05:52:44;;;;;;;16.15;7.80;;;3.40;99.90;;;2.59;76.77;95515.97;4980876;28;21602;-40
2023/03/08 05:55:09;;;;;;;14.18;7.38;;;3.40;99.90;;;2.66;76.73;95507.88;4983637;28;20578;-40
2023/03/08 05:57:35;;;;;;;15.93;7.57;;;3.50;99.90;;;2.72;76.65;95508.56;4979940;28;20049;-41
2023/03/08 06:00:03;;;;;;;13.15;7.90;;;3.50;99.90;;;2.69;77.37;95509.50;4980504;28;20504;-40
2023/03/08 06:02:29;;;;;;;15.52;7.30;;;3.50;99.90;;;2.71;77.03;95522.47;4981499;28;20172;-40
2023/03/08 06:04:55;;;;;;;14.45;8.02;;;3.50;99.90;;;2.65;76.24;95513.13;4975150;28;20058;-41
2023/03/08 06:07:20;;;;;;;13.30;7.43;;;3.50;99.90;;;2.77;76.47;95525.69;4971478;28;20398;-40
2023/03/08 06:09:46;;;;;;;14.60;7.85;;;3.60;99.90;;;2.79;78.37;95516.06;4965381;28;20038;-41
2023/03/08 06:12:12;;;;;;;13.50;7.90;;;3.60;99.90;;;2.87;76.84;95515.78;4977324;28;20065;-40
2023/03/08 06:14:37;;;;;;;16.90;8.27;;;3.60;99.90;;;2.85;77.25;95518.47;4981071;28;20486;-40
2023/03/08 06:17:03;;;;;;;17.42;7.95;;;3.70;99.90;;;2.86;77.06;95520.16;4978947;28;20045;-40
2023/03/08 06:19:30;;;;;;;15.73;8.57;;;3.70;99.90;;;2.95;76.99;95520.72;4978084;28;20276;-41
2023/03/08 06:21:55;;;;;;;18.15;9.00;;;3.70;99.90;;;2.95;77.25;95510.31;4983897;28;20088;-40
2023/03/08 06:24:21;;;;;;;15.98;7.65;;;3.70;99.90;;;2.89;77.65;95494.91;4983270;28;20032;-40
2023/03/08 06:26:47;;;;;;;18.40;9.00;;;3.70;99.90;;;2.95;77.95;95500.75;4980124;28;20517;-40
2023/03/08 06:29:12;;;;;;;16.50;9.10;;;3.80;99.90;;;2.97;77.65;95498.94;4980092;28;20038;-40
2023/03/08 06:31:38;;;;;;;19.88;9.30;;;3.80;99.90;;;3.01;78.08;95495.28;4985331;28;20045;-41
2023/03/08 06:34:04;;;;;;;16.48;9.13;;;3.80;99.90;;;3.03;80.49;95492.63;4986823;28;20072;-40
2023/03/08 06:36:29;;;;;;;16.15;8.50;;;3.80;99.90;;;3.06;79.04;95477.75;4978344;28;20033;-39
2023/03/08 06:38:55;;;;;;;15.15;8.90;;;3.90;99.90;;;3.13;78.66;95482.72;4983260;28;20389;-40
2023/03/08 06:41:21;;;;;;;17.20;9.07;;;3.90;99.90;;;3.13;78.97;95477.53;4990852;28;20026;-40
2023/03/08 06:43:47;;;;;;;16.02;9.32;;;3.90;99.90;;;3.12;79.86;95474.06;4986284;28;20386;-40
2023/03/08 06:46:16;;;;;;;17.13;8.73;;;4.00;99.90;;;3.18;79.55;95476.44;4994567;28;20053;-40
2023/03/08 06:48:42;;;;;;;16.23;9.27;;;4.00;99.90;;;3.17;79.87;95471.28;4987934;28;20474;-40
2023/03/08 06:51:08;;;;;;;18.27;8.45;;;4.00;99.90;;;3.28;80.05;95476.91;4990924;28;20642;-40
2023/03/08 06:53:37;;;;;;;19.27;9.82;;;4.00;99.90;;;3.36;80.19;95476.63;4996245;28;20042;-40
2023/03/08 06:56:06;;;;;;;18.38;9.65;;;4.10;99.90;;;3.44;79.18;95471.94;4990944;28;20489;-42
2023/03/08 06:58:35;;;;;;;14.75;9.82;;;4.20;99.90;;;3.51;79.69;95467.34;4991698;28;20037;-40
2023/03/08 07:01:03;;;;;;;19.88;10.43;;;4.30;99.90;;;3.54;79.08;95462.88;4985646;28;20117;-40
2023/03/08 07:03:29;;;;;;;21.23;10.65;;;4.30;99.90;;;3.54;79.01;95456.81;4988035;28;20516;-40
2023/03/08 07:06:13;;;;;;;19.40;10.23;;;4.40;99.90;;;3.65;79.20;95465.03;4986339;28;20066;-40
2023/03/08 07:08:39;;;;;;;16.88;9.07;;;4.50;99.90;;;3.70;79.06;95470.09;4989772;28;20027;-41
2023/03/08 07:11:07;;;;;;;17.15;9.65;;;4.50;99.90;;;3.69;78.89;95461.38;4989919;28;20088;-40
2023/03/08 07:13:33;;;;;;;16.65;9.05;;;4.50;99.90;;;3.79;78.88;95452.28;4988675;28;20033;-40
2023/03/08 07:16:09;;;;;;;18.33;9.27;;;4.60;99.90;;;3.87;78.58;95438.09;4986858;28;20088;-40
2023/03/08 07:18:34;;;;;;;17.73;9.65;;;4.60;99.90;;;3.88;78.55;95445.84;4987866;28;20037;-40
2023/03/08 07:21:00;;;;;;;16.23;10.38;;;4.70;99.90;;;3.96;77.92;95450.72;4992729;28;20026;-40
2023/03/08 07:23:26;;;;;;;16.63;9.63;;;4.70;99.90;;;3.97;78.43;95442.84;4988921;28;20624;-40
2023/03/08 07:25:52;;;;;;;15.57;9.20;;;4.70;99.90;;;3.96;78.23;95427.25;4988303;28;20033;-40
2023/03/08 07:28:17;;;;;;;18.10;10.35;;;4.80;99.90;;;4.03;79.17;95433.91;4995143;28;20033;-40
2023/03/08 07:30:51;;;;;;;19.08;9.50;;;4.80;99.90;;;4.06;79.18;95428.56;4981157;28;20034;-40
2023/03/08 07:33:19;;;;;;;18.63;9.55;;;4.80;99.90;;;3.93;79.45;95402.19;4988153;28;20072;-40
2023/03/08 07:35:45;;;;;;;17.02;9.30;;;4.80;99.90;;;4.11;78.38;95428.34;4994559;28;20033;-40
2023/03/08 07:38:11;;;;;;;16.25;9.13;;;4.90;99.90;;;4.14;78.40;95423.00;5005441;22;20646;-38
2023/03/08 07:40:37;;;;;;;17.52;9.65;;;4.90;99.90;;;4.19;78.55;95421.91;4980487;28;20061;-39
2023/03/08 07:43:03;;;;;;;19.27;9.80;;;5.00;99.90;;;4.28;77.58;95412.00;4989665;28;20121;-39
2023/03/08 07:45:29;;;;;;;18.92;10.18;;;5.00;99.90;;;4.25;77.55;95397.31;4995189;28;20037;-39
2023/03/08 07:47:55;;;;;;;19.38;10.02;;;5.00;99.90;;;4.33;77.44;95399.59;4987372;28;20057;-39
2023/03/08 07:50:21;;;;;;;20.55;10.63;;;5.10;99.90;;;4.32;76.31;95398.72;4972053;28;20438;-39
2023/03/08 07:52:47;;;;;;;21.88;10.02;;;5.10;99.90;;;4.34;76.62;95402.13;4964974;28;20478;-39
2023/03/08 07:55:13;;;;;;;16.77;9.35;;;5.10;99.90;;;4.34;76.59;95396.91;4972271;28;20034;-39
2023/03/08 07:57:39;;;;;;;17.23;9.52;;;5.10;99.90;;;4.37;77.46;95390.69;4968171;28;20593;-39
2023/03/08 08:00:06;;;;;;;17.95;9.45;;;5.10;99.90;;;4.40;77.39;95391.41;4969620;28;20030;-39
2023/03/08 08:02:35;;;;;;;17.83;9.10;;;5.10;99.90;;;4.45;77.79;95383.41;4972755;28;20030;-39
2023/03/08 08:05:03;;;;;;;18.90;9.85;;;5.20;99.90;;;4.51;77.17;95379.66;4965018;28;20065;-39
2023/03/08 08:07:29;;;;;;;16.42;9.20;;;5.30;99.90;;;4.54;77.05;95366.44;4968808;28;20037;-39
2023/03/08 08:09:55;;;;;;;17.75;9.30;;;5.30;99.90;;;4.60;76.87;95345.28;4976928;28;20030;-39
2023/03/08 08:12:22;;;;;;;20.85;10.32;;;5.40;99.90;;;4.62;80.37;95340.84;4973054;28;20140;-40
2023/03/08 08:14:51;;;;;;;16.02;9.25;;;5.50;99.90;;;4.73;79.62;95354.25;4962962;28;20398;-40
2023/03/08 08:17:21;;;;;;;16.40;8.88;;;5.50;99.90;;;4.76;80.17;95350.66;4967213;28;20667;-40
2023/03/08 08:19:47;;;;;;;20.20;9.35;;;5.50;99.90;;;4.73;82.00;95341.19;4974321;28;20313;-40
2023/03/08 08:22:13;;;;;;;13.35;8.35;;;5.50;99.90;;;4.73;82.67;95337.72;4977739;28;20050;-39
2023/03/08 08:24:39;;;;;;;10.40;7.13;;;5.50;99.90;;;4.73;82.93;95340.34;4974447;28;20091;-39
2023/03/08 08:27:05;;;;;;;11.55;7.05;;;5.50;99.90;;;4.65;83.70;95317.22;4975405;28;20026;-39
2023/03/08 08:29:31;;;;;;;11.80;6.85;;;5.40;99.90;;;4.69;85.39;95310.91;4973476;28;20079;-39
2023/03/08 08:31:56;;;;;;;14.07;7.07;;;5.40;99.90;;;4.62;86.37;95286.03;4968598;28;20406;-39
2023/03/08 08:34:22;;;;;;;16.05;7.80;;;5.40;99.90;;;4.60;89.43;95282.66;4971474;28;20030;-39
2023/03/08 08:36:48;;;;;;;13.15;7.88;;;5.40;99.90;;;4.67;90.26;95288.44;4972059;28;20038;-40
2023/03/08 08:39:14;;;;;;;13.20;7.32;;;5.40;99.90;;;4.70;92.05;95277.81;4972716;28;20042;-40
2023/03/08 08:41:40;;;;;;;14.68;8.73;;;5.50;99.90;;;4.86;94.80;95283.16;4970103;28;20470;-40
2023/03/08 08:44:06;;;;;;;14.93;8.55;;;5.60;99.90;;;4.91;98.28;95271.56;4973059;28;20303;-40
2023/03/08 08:46:33;;;;;;;15.65;8.55;;;5.60;99.90;;;5.03;99.38;95266.69;4972000;28;20022;-40
2023/03/08 08:49:00;;;;;;;14.82;8.52;;;5.70;99.90;;;5.11;100.00;95262.75;4971510;28;20026;-40
2023/03/08 08:51:26;;;;;;;15.25;8.55;;;5.80;99.90;;;5.16;100.00;95255.53;4973095;28;20379;-40
2023/03/08 08:53:53;;;;;;;16.30;9.18;;;5.90;99.90;;;5.16;100.00;95268.59;4966032;28;20558;-40
2023/03/08 08:56:23;;;;;;;14.40;7.95;;;5.90;99.90;;;5.18;100.00;95237.16;4963730;28;20069;-40
2023/03/08 08:58:49;;;;;;;13.73;8.75;;;5.90;99.90;;;5.05;100.00;95257.84;4965482;28;20581;-40
2023/03/08 09:01:18;;;;;;;16.35;9.38;;;5.90;99.90;;;4.87;100.00;95224.78;4958272;28;20564;-40
2023/03/08 09:03:45;;;;;;;13.65;8.40;;;5.80;99.90;;;5.10;100.00;95252.41;4958235;28;20030;-41
2023/03/08 09:06:13;;;;;;;16.05;8.95;;;5.80;99.90;;;5.10;100.00;95255.00;4966450;28;20061;-40
2023/03/08 09:08:38;;;;;;;14.23;7.60;;;5.80;99.90;;;5.15;100.00;95256.47;4964539;28;20038;-40
2023/03/08 09:11:07;;;;;;;13.30;8.75;;;5.90;99.90;;;5.24;100.00;95244.72;4969641;28;20038;-40
2023/03/08 09:13:33;;;;;;;13.05;8.18;;;6.00;99.90;;;5.14;100.00;95222.56;4968000;28;20045;-40
2023/03/08 09:15:59;;;;;;;14.25;8.63;;;6.00;99.90;;;5.33;100.00;95246.84;4971532;28;20089;-40
2023/03/08 09:18:26;;;;;;;12.90;8.20;;;6.10;99.90;;;5.38;100.00;95237.94;4971378;28;20108;-40
2023/03/08 09:20:52;;;;;;;14.00;7.97;;;6.10;99.90;;;5.41;100.00;95222.09;4967427;28;20046;-40
2023/03/08 09:23:18;;;;;;;16.90;9.20;;;6.20;99.90;;;5.54;100.00;95244.94;4969227;28;20035;-40
2023/03/08 09:25:44;;;;;;;19.77;9.30;;;6.20;99.90;;;5.59;100.00;95225.53;4970043;28;20041;-40
2023/03/08 09:28:11;;;;;;;13.02;7.97;;;6.30;99.90;;;5.59;100.00;95209.84;4975018;28;20041;-40
2023/03/08 09:30:37;;;;;;;19.92;9.07;;;6.30;99.90;;;5.56;100.00;95236.97;4971592;28;20038;-40
2023/03/08 09:33:03;;;;;;;16.55;9.15;;;6.30;99.90;;;5.54;100.00;95213.56;4971005;28;20103;-40
2023/03/08 09:35:29;;;;;;;14.27;8.25;;;6.20;99.90;;;5.57;100.00;95196.84;4970303;28;20042;-40
2023/03/08 09:37:55;;;;;;;17.33;9.13;;;6.30;99.90;;;5.45;100.00;95223.63;4969666;28;20066;-40
2023/03/08 09:40:25;;;;;;;18.83;10.43;;;6.20;99.90;;;5.50;100.00;95188.47;4973365;28;20375;-41
2023/03/08 09:42:52;;;;;;;15.90;8.75;;;6.30;99.90;;;5.59;100.00;95183.69;4971520;28;20036;-40
2023/03/08 09:45:27;;;;;;;17.77;9.50;;;6.30;99.90;;;5.64;100.00;95194.75;4969518;28;20033;-40
2023/03/08 09:48:12;;;;;;;15.95;9.90;;;6.40;99.90;;;5.73;100.00;95194.28;4965175;28;20080;-40
2023/03/08 09:50:50;;;;;;;18.25;8.82;;;6.40;99.90;;;5.84;100.00;95188.47;4963561;28;20026;-40
2023/03/08 09:53:37;;;;;;;17.58;9.20;;;6.50;99.90;;;5.92;100.00;95170.56;4970665;28;20449;-40
2023/03/08 09:56:24;;;;;;;14.15;8.70;;;6.60;99.90;;;6.04;99.73;95174.34;4968353;28;20157;-40
2023/03/08 09:58:59;;;;;;;20.15;9.52;;;6.70;99.90;;;6.16;100.00;95170.22;4972362;28;20520;-41
2023/03/08 10:01:59;;;;;;;20.52;10.90;;;6.80;99.90;;;6.27;99.18;95171.28;4968239;28;20057;-40
2023/03/08 10:05:22;;;;;;;20.80;9.70;;;7.00;99.90;;;6.30;94.55;95152.81;4973148;28;20041;-40
2023/03/08 10:08:09;;;;;;;16.10;9.65;;;7.10;99.90;;;6.42;94.47;95148.63;4970137;28;20027;-40
2023/03/08 10:11:06;;;;;;;17.52;8.80;;;7.20;99.90;;;6.56;96.36;95150.50;4970845;28;20178;-41
2023/03/08 10:13:41;;;;;;;16.80;8.88;;;7.30;99.90;;;6.78;96.84;95151.88;4971590;28;20381;-40
2023/03/08 10:16:25;;;;;;;12.27;7.00;;;7.50;99.90;;;6.93;94.74;95153.63;4964710;28;20030;-41
2023/03/08 10:18:58;;;;;;;12.32;7.13;;;7.70;99.90;;;7.04;96.80;95155.59;4970283;28;20055;-41
2023/03/08 10:21:28;;;;;;;12.30;6.32;;;7.80;99.90;;;7.19;100.00;95132.88;4972146;28;20830;-40
2023/03/08 10:24:26;;;;;;;8.70;5.45;;;8.00;99.90;;;7.48;100.00;95135.53;4965578;28;20038;-41
2023/03/08 10:27:01;;;;;;;9.25;5.65;;;8.30;99.90;;;7.68;100.00;95135.16;4972815;28;20045;-41
2023/03/08 10:29:27;;;;;;;10.07;5.03;;;8.40;99.90;;;7.89;100.00;95127.72;4980110;28;20058;-40